Time;durP1;ratioP1;P1;durP2;ratioP2;P2;SDS_P1;SDS_P2;PMS_P1;PMS_P2;Temp;Humidity;BMP_temperature;BMP_pressure;BME280_temperature;BME280_humidity;BME280_pressure;Samples;Min_cycle;Max_cycle;Signal;HPM_P1;HPM_P2
2022/03/03 00:01:42;;;;;;;48.08;22.55;;;52.00;1843.20;;;;;;5132415;27;20027;-55
2022/03/03 00:04:08;;;;;;;50.70;23.05;;;52.00;1843.20;;;;;;5130443;27;20088;-54
2022/03/03 00:06:35;;;;;;;50.85;22.88;;;51.90;1843.20;;;;;;5134718;27;20417;-55
2022/03/03 00:09:02;;;;;;;36.60;19.20;;;51.90;1843.20;;;;;;5134281;27;20392;-55
2022/03/03 00:11:29;;;;;;;42.42;20.80;;;51.90;1843.20;;;;;;5132406;27;20495;-57
2022/03/03 00:13:54;;;;;;;36.95;18.83;;;51.90;1843.20;;;;;;5129656;27;20030;-54
2022/03/03 00:16:20;;;;;;;38.90;20.48;;;51.90;1843.20;;;;;;5132243;27;20388;-55
2022/03/03 00:18:46;;;;;;;43.60;20.33;;;51.80;1843.20;;;;;;5132347;27;20087;-55
2022/03/03 00:21:11;;;;;;;37.53;19.27;;;51.90;1843.20;;;;;;5131858;27;20011;-55
2022/03/03 00:23:37;;;;;;;37.03;19.35;;;51.80;1843.20;;;;;;5132299;27;20052;-57
2022/03/03 00:26:03;;;;;;;40.28;20.15;;;51.80;1843.20;;;;;;5132445;27;20023;-57
2022/03/03 00:28:29;;;;;;;33.50;18.08;;;51.80;1843.20;;;;;;5131732;27;20023;-57
2022/03/03 00:30:55;;;;;;;47.05;21.83;;;51.70;1843.20;;;;;;5129689;27;20046;-56
2022/03/03 00:33:20;;;;;;;51.67;22.98;;;51.70;1868.80;;;;;;5132405;27;20124;-58
2022/03/03 00:35:46;;;;;;;45.90;22.35;;;51.70;1868.80;;;;;;5132234;27;20470;-58
2022/03/03 00:38:12;;;;;;;48.88;23.70;;;51.60;1868.80;;;;;;5132040;27;20115;-58
2022/03/03 00:40:38;;;;;;;54.25;25.27;;;51.50;1894.40;;;;;;5132121;27;20106;-56
2022/03/03 00:43:06;;;;;;;47.92;23.48;;;51.40;1894.40;;;;;;5132101;27;20043;-55
2022/03/03 00:45:33;;;;;;;47.90;23.10;;;51.50;1894.40;;;;;;5134605;27;20027;-56
2022/03/03 00:47:58;;;;;;;40.80;22.17;;;51.40;1894.40;;;;;;5136111;27;20019;-58
2022/03/03 00:50:24;;;;;;;42.45;22.17;;;51.40;1894.40;;;;;;5136416;27;20083;-58
2022/03/03 00:52:50;;;;;;;43.03;21.80;;;51.30;1920.00;;;;;;5136372;27;20292;-55
2022/03/03 00:55:15;;;;;;;44.10;20.92;;;51.20;1920.00;;;;;;5136232;27;20477;-59
2022/03/03 00:57:41;;;;;;;41.10;22.52;;;26.50;1920.00;;;;;;5135848;27;20031;-58
2022/03/03 01:00:09;;;;;;;37.75;20.77;;;26.50;1920.00;;;;;;5136140;27;20126;-57
2022/03/03 01:02:35;;;;;;;40.13;20.40;;;26.40;1920.00;;;;;;5133057;27;20050;-58
2022/03/03 01:05:01;;;;;;;36.13;18.85;;;26.40;1920.00;;;;;;5135692;27;20034;-59
2022/03/03 01:07:27;;;;;;;37.03;19.58;;;26.40;1920.00;;;;;;5135913;27;20031;-59
2022/03/03 01:09:53;;;;;;;38.28;20.45;;;26.40;1920.00;;;;;;5136158;27;20023;-59
2022/03/03 01:12:19;;;;;;;35.58;19.63;;;26.30;1920.00;;;;;;5135584;27;20027;-59
2022/03/03 01:14:45;;;;;;;41.55;21.13;;;26.30;1945.60;;;;;;5135766;27;20058;-58
2022/03/03 01:17:11;;;;;;;38.67;20.75;;;26.30;1945.60;;;;;;5135928;27;20088;-59
2022/03/03 01:19:36;;;;;;;40.42;20.58;;;26.30;1945.60;;;;;;5136027;27;20023;-54
2022/03/03 01:22:03;;;;;;;39.50;18.63;;;26.30;1920.00;;;;;;5135736;27;20353;-55
2022/03/03 01:24:28;;;;;;;38.63;19.50;;;26.30;1920.00;;;;;;5135749;27;20064;-56
2022/03/03 01:26:54;;;;;;;40.55;19.42;;;26.30;1920.00;;;;;;5133277;27;20042;-57
2022/03/03 01:29:20;;;;;;;39.75;19.42;;;26.10;1945.60;;;;;;5135609;27;20256;-55
2022/03/03 01:31:45;;;;;;;36.97;19.85;;;26.10;1945.60;;;;;;5134152;27;20012;-55
2022/03/03 01:34:12;;;;;;;37.83;19.23;;;26.10;1945.60;;;;;;5135179;27;20392;-57
2022/03/03 01:36:37;;;;;;;40.17;19.52;;;26.10;1945.60;;;;;;5135487;27;20072;-54
2022/03/03 01:39:05;;;;;;;37.97;18.88;;;26.10;1945.60;;;;;;5135566;27;20070;-57
2022/03/03 01:41:31;;;;;;;37.03;19.27;;;26.10;1945.60;;;;;;5135062;27;20031;-55
2022/03/03 01:43:57;;;;;;;38.17;19.13;;;26.00;1945.60;;;;;;5135000;27;20054;-57
2022/03/03 01:46:23;;;;;;;39.00;19.77;;;26.00;1971.20;;;;;;5132350;27;20027;-58
2022/03/03 01:48:49;;;;;;;39.05;19.40;;;26.00;1971.20;;;;;;5134896;27;20128;-58
2022/03/03 01:51:14;;;;;;;41.70;20.33;;;26.00;1971.20;;;;;;5133413;27;20080;-58
2022/03/03 01:53:40;;;;;;;39.30;19.85;;;25.90;1971.20;;;;;;5135159;27;20100;-57
2022/03/03 01:56:07;;;;;;;39.53;20.13;;;26.00;1971.20;;;;;;5134421;27;20468;-55
2022/03/03 01:58:33;;;;;;;39.70;20.17;;;26.00;1971.20;;;;;;5135045;27;20035;-58
2022/03/03 02:00:59;;;;;;;46.22;20.13;;;25.90;1971.20;;;;;;5134722;27;20030;-57
2022/03/03 02:03:25;;;;;;;38.08;19.55;;;25.90;1996.80;;;;;;5134853;27;20016;-58
2022/03/03 02:05:51;;;;;;;38.72;20.60;;;25.90;1996.80;;;;;;5134647;27;20019;-58
2022/03/03 02:08:16;;;;;;;39.67;20.00;;;25.90;1971.20;;;;;;5134740;27;20054;-55
2022/03/03 02:10:42;;;;;;;38.65;19.38;;;25.90;1996.80;;;;;;5134605;27;20105;-57
2022/03/03 02:13:08;;;;;;;36.38;18.88;;;25.80;1996.80;;;;;;5134928;27;20030;-56
2022/03/03 02:15:34;;;;;;;38.80;19.45;;;25.80;1996.80;;;;;;5134595;27;20029;-54
2022/03/03 02:18:00;;;;;;;37.88;18.95;;;25.80;1996.80;;;;;;5133313;27;20027;-55
2022/03/03 02:20:28;;;;;;;34.05;18.63;;;25.80;1996.80;;;;;;5134924;27;20098;-58
2022/03/03 02:22:55;;;;;;;37.63;18.23;;;25.80;1996.80;;;;;;5134483;27;20072;-57
2022/03/03 02:25:22;;;;;;;40.25;19.35;;;25.80;1996.80;;;;;;5134787;27;20015;-55
2022/03/03 02:27:48;;;;;;;39.35;19.40;;;25.70;1996.80;;;;;;5134588;27;20046;-56
2022/03/03 02:30:16;;;;;;;40.38;19.38;;;25.70;1996.80;;;;;;5134752;27;20464;-55
2022/03/03 02:32:43;;;;;;;41.40;20.25;;;25.60;1996.80;;;;;;5131924;27;20023;-56
2022/03/03 02:35:09;;;;;;;41.90;21.15;;;25.60;1996.80;;;;;;5134358;27;20468;-58
2022/03/03 02:37:40;;;;;;;40.75;20.85;;;25.70;1996.80;;;;;;5134175;27;20037;-54
2022/03/03 02:40:12;;;;;;;39.35;20.00;;;25.60;1996.80;;;;;;5131824;27;20026;-54
2022/03/03 02:42:38;;;;;;;38.80;19.95;;;25.60;1996.80;;;;;;5134057;27;20122;-58
2022/03/03 02:45:05;;;;;;;37.83;18.70;;;25.60;2022.40;;;;;;5134154;27;20098;-58
2022/03/03 02:47:31;;;;;;;33.85;18.30;;;25.60;2022.40;;;;;;5134161;27;20083;-59
2022/03/03 02:49:57;;;;;;;36.13;18.42;;;25.60;2022.40;;;;;;5131527;27;20031;-61
2022/03/03 02:52:24;;;;;;;36.17;18.42;;;25.60;2022.40;;;;;;5133913;27;20034;-59
2022/03/03 02:54:49;;;;;;;40.17;18.48;;;25.60;2022.40;;;;;;5134467;27;20027;-57
2022/03/03 03:00:00;;;;;;;38.92;19.63;;;0.90;2022.40;;;;;;5131406;27;20025;-57
2022/03/03 03:02:25;;;;;;;36.38;18.42;;;25.60;2022.40;;;;;;5133760;27;20134;-59
2022/03/03 03:04:51;;;;;;;38.95;19.05;;;0.90;2022.40;;;;;;5132918;27;20115;-58
2022/03/03 03:07:17;;;;;;;34.03;18.02;;;0.90;2022.40;;;;;;5130040;27;20023;-56
2022/03/03 03:09:43;;;;;;;34.88;17.25;;;0.80;2022.40;;;;;;5133931;27;20385;-59
2022/03/03 03:12:09;;;;;;;39.20;19.15;;;0.80;2048.00;;;;;;5133963;27;20027;-58
2022/03/03 03:14:35;;;;;;;35.45;18.33;;;0.80;2048.00;;;;;;5133863;27;20039;-57
2022/03/03 03:17:01;;;;;;;36.15;18.27;;;0.80;2048.00;;;;;;5133805;27;20030;-54
2022/03/03 03:19:26;;;;;;;37.08;18.58;;;0.80;2048.00;;;;;;5131903;27;20023;-54
2022/03/03 03:21:52;;;;;;;36.45;17.52;;;0.80;2048.00;;;;;;5132598;27;20418;-55
2022/03/03 03:24:18;;;;;;;43.15;19.02;;;0.70;2048.00;;;;;;5133759;27;20060;-55
2022/03/03 03:26:44;;;;;;;37.40;18.58;;;0.70;2073.60;;;;;;5131883;27;20405;-56
2022/03/03 03:29:09;;;;;;;39.40;18.60;;;0.70;2073.60;;;;;;5133448;27;20026;-57
2022/03/03 03:31:35;;;;;;;35.78;18.08;;;0.60;2073.60;;;;;;5133087;27;20043;-58
2022/03/03 03:34:01;;;;;;;34.72;18.42;;;0.50;2073.60;;;;;;5133461;27;20120;-59
2022/03/03 03:36:27;;;;;;;31.90;16.35;;;0.50;2073.60;;;;;;5132652;27;20403;-55
2022/03/03 03:38:53;;;;;;;41.15;18.42;;;0.40;2099.20;;;;;;5132612;27;20042;-55
2022/03/03 03:41:18;;;;;;;34.03;18.30;;;0.50;2099.20;;;;;;5133340;27;20027;-56
2022/03/03 03:43:44;;;;;;;39.20;18.98;;;0.50;2099.20;;;;;;5132955;27;20067;-57
2022/03/03 03:46:10;;;;;;;36.90;18.88;;;0.50;2099.20;;;;;;5133427;27;20023;-55
2022/03/03 03:48:35;;;;;;;39.33;17.63;;;0.50;2073.60;;;;;;5132789;27;20047;-59
2022/03/03 03:51:01;;;;;;;36.35;17.48;;;0.40;2073.60;;;;;;5132971;27;20023;-55
2022/03/03 03:53:27;;;;;;;35.30;16.67;;;0.40;2099.20;;;;;;5132143;27;20464;-55
2022/03/03 03:55:52;;;;;;;33.15;16.85;;;0.30;2099.20;;;;;;5132317;27;20027;-58
2022/03/03 03:58:18;;;;;;;38.80;17.38;;;0.40;2073.60;;;;;;5132700;27;20053;-59
2022/03/03 04:00:44;;;;;;;35.10;17.55;;;0.40;2073.60;;;;;;5132727;27;20048;-56
2022/03/03 04:03:10;;;;;;;33.72;16.80;;;0.40;2073.60;;;;;;5132801;27;20464;-58
2022/03/03 04:05:36;;;;;;;36.03;17.85;;;0.40;2073.60;;;;;;5132918;27;20029;-56
2022/03/03 04:08:02;;;;;;;34.40;17.77;;;0.40;2073.60;;;;;;5132754;27;20076;-59
2022/03/03 04:10:28;;;;;;;46.58;19.58;;;0.40;2073.60;;;;;;5132688;27;20023;-60
2022/03/03 04:12:55;;;;;;;41.35;19.05;;;0.50;2073.60;;;;;;5131918;27;20034;-57
2022/03/03 04:15:21;;;;;;;42.22;20.50;;;0.50;2073.60;;;;;;5132341;27;20033;-57
2022/03/03 04:17:48;;;;;;;42.58;20.05;;;0.50;2073.60;;;;;;5132859;27;20060;-57
2022/03/03 04:20:15;;;;;;;38.78;19.00;;;0.50;2073.60;;;;;;5130680;27;20088;-55
2022/03/03 04:22:41;;;;;;;46.55;21.50;;;0.40;2073.60;;;;;;5132729;27;20035;-59
2022/03/03 04:25:10;;;;;;;54.03;23.63;;;0.40;2099.20;;;;;;5132577;27;20023;-56
2022/03/03 04:27:37;;;;;;;80.93;28.05;;;0.40;2099.20;;;;;;5132400;27;20023;-56
2022/03/03 04:30:05;;;;;;;61.13;25.10;;;0.30;2099.20;;;;;;5130379;27;20030;-55
2022/03/03 04:32:30;;;;;;;51.38;23.63;;;0.30;2099.20;;;;;;5132532;27;20560;-58
2022/03/03 04:34:56;;;;;;;53.80;23.52;;;0.30;2099.20;;;;;;5132500;27;20102;-57
2022/03/03 04:37:22;;;;;;;48.53;23.05;;;0.30;2124.80;;;;;;5132438;28;20054;-58
2022/03/03 04:39:47;;;;;;;52.80;23.83;;;0.30;2124.80;;;;;;5132826;28;20673;-57
2022/03/03 04:42:13;;;;;;;53.42;23.83;;;0.30;2124.80;;;;;;5132214;28;20047;-56
2022/03/03 04:44:39;;;;;;;51.05;23.67;;;0.30;2099.20;;;;;;5130081;27;20034;-58
2022/03/03 04:47:06;;;;;;;56.10;24.38;;;0.30;2099.20;;;;;;5132439;28;20023;-58
2022/03/03 04:49:31;;;;;;;53.03;23.52;;;0.40;2099.20;;;;;;5132665;27;20027;-59
2022/03/03 04:51:57;;;;;;;57.17;25.02;;;0.40;2099.20;;;;;;5132252;27;20445;-58
2022/03/03 04:54:23;;;;;;;53.97;24.58;;;0.40;2099.20;;;;;;5132377;27;20031;-58
2022/03/03 04:56:49;;;;;;;53.30;24.27;;;0.40;2099.20;;;;;;5132243;27;20106;-55
2022/03/03 04:59:15;;;;;;;52.55;24.13;;;0.40;2073.60;;;;;;5132390;27;20055;-57
2022/03/03 05:01:40;;;;;;;51.13;23.50;;;0.40;2099.20;;;;;;5128422;27;20469;-55
2022/03/03 05:04:06;;;;;;;53.00;23.63;;;0.40;2073.60;;;;;;5132214;28;20033;-55
2022/03/03 05:06:32;;;;;;;43.75;20.58;;;0.50;2073.60;;;;;;5132233;28;20448;-54
2022/03/03 05:08:57;;;;;;;43.33;20.65;;;0.40;2073.60;;;;;;5132394;28;20030;-58
2022/03/03 05:11:23;;;;;;;44.22;21.80;;;0.40;2099.20;;;;;;5132434;28;20456;-54
2022/03/03 05:13:49;;;;;;;56.58;24.45;;;0.40;2099.20;;;;;;5132886;28;20034;-57
2022/03/03 05:16:15;;;;;;;52.28;23.35;;;0.40;2099.20;;;;;;5133232;28;20024;-59
2022/03/03 05:18:41;;;;;;;50.85;24.55;;;0.30;2099.20;;;;;;5131312;27;20441;-54
2022/03/03 05:21:06;;;;;;;56.63;26.25;;;0.30;2099.20;;;;;;5111869;28;20052;-57
2022/03/03 05:23:32;;;;;;;47.38;24.02;;;0.30;2099.20;;;;;;5111911;28;20028;-58
2022/03/03 05:25:58;;;;;;;43.22;21.02;;;0.30;2099.20;;;;;;5112161;28;20047;-56
2022/03/03 05:28:23;;;;;;;42.97;20.75;;;0.30;2099.20;;;;;;5112016;28;20465;-59
2022/03/03 05:30:49;;;;;;;47.63;22.73;;;0.30;2099.20;;;;;;5113579;28;20026;-56
2022/03/03 05:33:15;;;;;;;53.30;26.67;;;0.30;2099.20;;;;;;5116650;28;20417;-58
2022/03/03 05:35:41;;;;;;;59.78;27.58;;;0.30;2099.20;;;;;;5127128;27;20027;-56
2022/03/03 05:38:07;;;;;;;57.45;26.88;;;0.30;2099.20;;;;;;5134883;27;20537;-56
2022/03/03 05:40:33;;;;;;;55.60;27.52;;;0.40;2073.60;;;;;;5136190;27;20019;-57
2022/03/03 05:42:59;;;;;;;63.30;30.42;;;0.40;2073.60;;;;;;5136618;27;20420;-59
2022/03/03 05:45:25;;;;;;;60.92;30.83;;;0.50;2073.60;;;;;;5136450;27;20031;-59
2022/03/03 05:47:52;;;;;;;54.65;28.30;;;0.50;2073.60;;;;;;5135981;27;20039;-56
2022/03/03 05:50:17;;;;;;;52.78;26.85;;;0.50;2073.60;;;;;;5135732;27;20033;-55
2022/03/03 05:52:43;;;;;;;70.47;30.80;;;0.50;2048.00;;;;;;5133629;27;20106;-55
2022/03/03 05:55:09;;;;;;;80.47;32.97;;;0.50;2048.00;;;;;;5137026;27;20019;-54
2022/03/03 05:57:48;;;;;;;107.65;42.70;;;0.60;2048.00;;;;;;5136699;27;20495;-55
2022/03/03 06:00:16;;;;;;;68.03;31.42;;;0.70;2022.40;;;;;;5136876;27;20023;-57
2022/03/03 06:02:53;;;;;;;57.85;28.40;;;0.80;2022.40;;;;;;5135568;27;20015;-55
2022/03/03 06:05:23;;;;;;;50.17;23.30;;;26.00;1996.80;;;;;;5133186;27;20019;-55
2022/03/03 06:07:54;;;;;;;99.88;44.60;;;25.60;1996.80;;;;;;5137153;27;20027;-56
2022/03/03 06:10:24;;;;;;;60.90;29.63;;;25.60;1996.80;;;;;;5126717;27;20050;-56
2022/03/03 06:13:03;;;;;;;60.92;29.55;;;25.70;1971.20;;;;;;5136794;27;20035;-55
2022/03/03 06:15:29;;;;;;;66.72;29.77;;;25.70;1971.20;;;;;;5136207;27;20019;-55
2022/03/03 06:17:57;;;;;;;60.55;28.50;;;25.80;1971.20;;;;;;5136916;27;20130;-57
2022/03/03 06:20:23;;;;;;;56.30;26.15;;;25.90;1945.60;;;;;;5136450;27;20025;-54
2022/03/03 06:22:49;;;;;;;52.55;25.27;;;26.00;1945.60;;;;;;5135505;27;20027;-56
2022/03/03 06:25:15;;;;;;;43.90;23.75;;;26.10;1920.00;;;;;;5134270;27;20456;-58
2022/03/03 06:27:40;;;;;;;55.60;30.35;;;26.30;1894.40;;;;;;5135300;27;20451;-55
2022/03/03 06:30:07;;;;;;;63.28;32.40;;;51.40;1894.40;;;;;;5134890;27;20415;-58
2022/03/03 06:32:32;;;;;;;66.93;35.28;;;51.90;1817.60;;;;;;5135806;27;20053;-56
2022/03/03 06:34:58;;;;;;;84.82;36.55;;;77.20;1740.80;;;;;;5136116;27;20180;-56
2022/03/03 06:37:24;;;;;;;68.60;33.35;;;102.80;1638.40;;;;;;5135062;27;20035;-58
2022/03/03 06:39:50;;;;;;;66.63;32.28;;;128.70;1536.00;;;;;;5135353;27;20056;-55
2022/03/03 06:42:15;;;;;;;52.95;26.45;;;154.40;1408.00;;;;;;5120396;27;20047;-59
2022/03/03 06:44:41;;;;;;;53.88;27.63;;;180.10;1305.60;;;;;;5115861;28;20106;-55
2022/03/03 06:47:07;;;;;;;64.45;31.48;;;205.20;1254.40;;;;;;5116011;28;20030;-56
2022/03/03 06:49:32;;;;;;;61.67;29.63;;;230.50;1177.60;;;;;;5115899;28;20080;-56
2022/03/03 06:52:02;;;;;;;50.78;26.35;;;230.50;1177.60;;;;;;5115731;28;20027;-55
2022/03/03 06:54:31;;;;;;;52.60;27.10;;;256.10;1126.40;;;;;;5116010;28;20016;-56
2022/03/03 06:56:58;;;;;;;52.10;27.98;;;256.80;1049.60;;;;;;5125254;27;20031;-56
2022/03/03 06:59:28;;;;;;;37.67;22.95;;;282.00;1024.00;;;;;;5136246;27;20023;-56
2022/03/03 07:01:55;;;;;;;42.65;26.67;;;282.50;998.40;;;;;;5136079;27;20381;-56
2022/03/03 07:04:22;;;;;;;38.35;23.08;;;307.80;972.80;;;;;;5136388;27;20118;-58
2022/03/03 07:06:50;;;;;;;35.17;23.45;;;333.20;921.60;;;;;;5135870;27;20062;-57
2022/03/03 07:09:17;;;;;;;39.97;24.25;;;358.80;870.40;;;;;;5136036;27;20052;-57
2022/03/03 07:11:44;;;;;;;46.08;27.60;;;358.70;870.40;;;;;;5135924;27;20368;-57
2022/03/03 07:14:11;;;;;;;51.20;30.90;;;359.20;870.40;;;;;;5134985;27;20111;-56
2022/03/03 07:17:04;;;;;;;43.45;26.75;;;384.90;793.60;;;;;;5136063;27;20365;-56
2022/03/03 07:19:49;;;;;;;42.20;25.73;;;410.10;768.00;;;;;;5136148;27;20425;-56
2022/03/03 07:22:32;;;;;;;42.10;24.40;;;410.30;768.00;;;;;;5135973;27;20373;-56
2022/03/03 07:25:10;;;;;;;37.00;24.13;;;410.10;793.60;;;;;;5135778;27;20431;-58
2022/03/03 07:27:44;;;;;;;31.60;20.85;;;409.70;819.20;;;;;;5135680;27;20023;-57
2022/03/03 07:30:16;;;;;;;30.13;20.67;;;384.00;819.20;;;;;;5122617;27;20442;-56
2022/03/03 07:32:47;;;;;;;32.42;19.83;;;359.30;844.80;;;;;;5115016;27;20058;-56
2022/03/03 07:35:14;;;;;;;28.20;19.98;;;358.90;870.40;;;;;;5114937;28;20039;-56
2022/03/03 07:37:48;;;;;;;28.25;18.98;;;384.30;844.80;;;;;;5115008;28;20114;-57
2022/03/03 07:40:13;;;;;;;27.58;19.42;;;409.60;819.20;;;;;;5115066;28;20023;-56
2022/03/03 07:42:39;;;;;;;28.33;18.73;;;410.30;793.60;;;;;;5114587;28;20055;-58
2022/03/03 07:45:07;;;;;;;30.02;20.40;;;435.40;742.40;;;;;;5114340;28;20023;-56
2022/03/03 07:47:33;;;;;;;27.92;19.08;;;460.80;742.40;;;;;;5114524;27;20028;-56
2022/03/03 07:49:59;;;;;;;26.83;17.30;;;461.40;716.80;;;;;;5114579;28;20476;-57
2022/03/03 07:52:28;;;;;;;24.40;17.85;;;486.40;665.60;;;;;;5114442;28;20048;-56
2022/03/03 07:54:54;;;;;;;26.20;18.65;;;512.30;640.00;;;;;;5113946;28;20453;-57
2022/03/03 07:57:22;;;;;;;28.13;19.30;;;512.50;640.00;;;;;;5114422;28;20035;-57
2022/03/03 07:59:56;;;;;;;24.15;17.67;;;538.20;614.40;;;;;;5124508;27;20027;-56
2022/03/03 08:02:23;;;;;;;23.65;17.67;;;538.20;614.40;;;;;;5129811;27;20460;-56
2022/03/03 08:04:50;;;;;;;26.17;18.67;;;563.30;614.40;;;;;;5134867;27;20019;-57
2022/03/03 08:07:17;;;;;;;24.40;17.38;;;588.90;588.80;;;;;;5135213;27;20436;-57
2022/03/03 08:09:46;;;;;;;27.13;19.20;;;589.60;563.20;;;;;;5135085;27;20022;-57
2022/03/03 08:12:14;;;;;;;27.10;19.85;;;614.70;537.60;;;;;;5134761;27;20469;-57
2022/03/03 08:14:41;;;;;;;37.22;24.23;;;640.00;486.40;;;;;;5133481;27;20457;-58
2022/03/03 08:17:08;;;;;;;108.10;45.25;;;640.30;486.40;;;;;;5133662;27;20061;-58
2022/03/03 08:19:34;;;;;;;60.97;30.92;;;666.10;486.40;;;;;;5122746;27;20035;-58
2022/03/03 08:22:00;;;;;;;158.63;59.92;;;665.80;486.40;;;;;;5114291;28;20051;-57
2022/03/03 08:24:26;;;;;;;354.52;126.38;;;666.10;460.80;;;;;;5114219;28;20065;-58
2022/03/03 08:26:55;;;;;;;170.90;62.92;;;691.60;435.20;;;;;;5114557;28;20016;-56
2022/03/03 08:29:22;;;;;;;79.47;37.25;;;716.90;409.60;;;;;;5113532;28;20055;-57
2022/03/03 08:31:52;;;;;;;90.43;41.95;;;692.00;409.60;;;;;;5114288;28;20361;-57
2022/03/03 08:34:41;;;;;;;125.03;55.38;;;717.30;409.60;;;;;;5116405;27;20035;-56
2022/03/03 08:37:11;;;;;;;28.33;20.58;;;717.10;409.60;;;;;;5134701;27;20019;-58
2022/03/03 08:39:38;;;;;;;41.92;25.40;;;717.60;409.60;;;;;;5134200;27;20361;-58
2022/03/03 08:42:08;;;;;;;34.65;24.05;;;742.70;409.60;;;;;;5134408;27;20039;-58
2022/03/03 08:44:36;;;;;;;155.18;67.82;;;768.00;384.00;;;;;;5134311;27;20037;-58
2022/03/03 08:47:04;;;;;;;67.43;36.17;;;768.30;384.00;;;;;;5134299;28;20011;-57
2022/03/03 08:49:39;;;;;;;113.63;58.92;;;768.30;358.40;;;;;;5132265;27;20020;-58
2022/03/03 08:52:07;;;;;;;26.35;20.30;;;768.80;358.40;;;;;;5114081;28;20019;-58
2022/03/03 08:54:33;;;;;;;23.88;20.20;;;794.20;358.40;;;;;;5114082;28;20028;-59
2022/03/03 08:56:59;;;;;;;21.98;19.58;;;793.70;384.00;;;;;;5113942;28;20019;-58
2022/03/03 08:59:25;;;;;;;22.00;18.50;;;793.90;358.40;;;;;;5133111;28;20054;-59
2022/03/03 09:01:51;;;;;;;22.90;19.00;;;794.00;358.40;;;;;;5134362;28;20035;-57
2022/03/03 09:04:18;;;;;;;19.70;17.02;;;819.20;332.80;;;;;;5134470;27;20519;-58
2022/03/03 09:06:45;;;;;;;19.58;17.48;;;819.50;332.80;;;;;;5130478;27;20019;-61
2022/03/03 09:09:11;;;;;;;21.00;18.70;;;820.00;307.20;;;;;;5134173;27;20472;-58
2022/03/03 09:11:38;;;;;;;22.60;18.38;;;820.00;307.20;;;;;;5136218;27;20392;-58
2022/03/03 09:14:04;;;;;;;19.42;17.33;;;819.70;332.80;;;;;;5136126;27;20031;-58
2022/03/03 09:16:30;;;;;;;21.85;18.33;;;794.50;332.80;;;;;;5133375;27;20130;-59
2022/03/03 09:18:56;;;;;;;23.17;19.73;;;819.80;307.20;;;;;;5135888;27;20106;-58
2022/03/03 09:21:22;;;;;;;20.40;17.52;;;819.20;332.80;;;;;;5133797;27;20447;-58
2022/03/03 09:23:47;;;;;;;22.48;19.77;;;768.70;358.40;;;;;;5132159;27;20027;-58
2022/03/03 09:26:13;;;;;;;22.50;17.63;;;768.50;358.40;;;;;;5135443;27;20414;-58
2022/03/03 09:28:39;;;;;;;22.50;18.02;;;768.00;384.00;;;;;;5133466;27;20035;-58
2022/03/03 09:31:05;;;;;;;21.90;19.25;;;768.30;384.00;;;;;;5135635;27;20025;-59
2022/03/03 09:33:31;;;;;;;21.85;17.10;;;794.20;358.40;;;;;;5134954;27;20023;-58
2022/03/03 09:35:57;;;;;;;20.55;17.30;;;819.30;332.80;;;;;;5135902;27;20079;-58
2022/03/03 09:38:23;;;;;;;24.65;21.33;;;819.80;332.80;;;;;;5133430;27;20078;-59
2022/03/03 09:40:49;;;;;;;21.17;18.10;;;845.20;332.80;;;;;;5116519;27;20024;-59
2022/03/03 09:43:15;;;;;;;67.10;38.85;;;870.40;281.60;;;;;;5133431;27;20378;-59
2022/03/03 09:45:41;;;;;;;45.15;26.80;;;870.40;281.60;;;;;;5136084;27;20024;-59
2022/03/03 09:48:09;;;;;;;22.05;16.77;;;845.60;307.20;;;;;;5135491;27;20376;-59
2022/03/03 09:50:41;;;;;;;22.48;18.80;;;870.70;281.60;;;;;;5136402;27;20474;-59
2022/03/03 09:53:08;;;;;;;21.65;17.98;;;870.40;281.60;;;;;;5136232;27;20139;-59
2022/03/03 09:55:36;;;;;;;19.92;16.92;;;870.50;281.60;;;;;;5118396;27;20032;-59
2022/03/03 09:58:02;;;;;;;21.45;18.42;;;870.40;281.60;;;;;;5131860;27;20043;-59
2022/03/03 10:00:33;;;;;;;19.63;17.02;;;870.80;281.60;;;;;;5134973;27;20011;-59
2022/03/03 10:03:10;;;;;;;20.88;17.73;;;870.40;281.60;;;;;;5134757;27;20063;-59
2022/03/03 10:05:40;;;;;;;22.73;19.90;;;870.50;281.60;;;;;;5133977;27;20469;-59
2022/03/03 10:08:09;;;;;;;19.38;16.88;;;871.00;281.60;;;;;;5130732;27;20031;-60
2022/03/03 10:10:37;;;;;;;28.77;25.75;;;870.60;307.20;;;;;;5134729;27;20023;-59
2022/03/03 10:13:03;;;;;;;23.45;20.52;;;871.30;256.00;;;;;;5132098;27;20054;-59
2022/03/03 10:15:31;;;;;;;27.10;24.20;;;896.10;256.00;;;;;;5131549;27;20110;-59
2022/03/03 10:18:02;;;;;;;23.55;18.88;;;921.90;281.60;;;;;;5133447;27;20035;-59
2022/03/03 10:20:34;;;;;;;20.10;17.95;;;896.70;256.00;;;;;;5135295;27;20027;-59
2022/03/03 10:23:00;;;;;;;22.55;20.25;;;896.80;256.00;;;;;;5135230;27;20023;-60
2022/03/03 10:25:32;;;;;;;24.10;21.13;;;896.10;256.00;;;;;;5135217;27;20021;-60
2022/03/03 10:28:06;;;;;;;23.55;19.90;;;870.60;281.60;;;;;;5132104;27;20031;-59
2022/03/03 10:30:52;;;;;;;21.67;19.25;;;870.40;281.60;;;;;;5133444;27;20015;-59
2022/03/03 10:33:20;;;;;;;31.08;19.52;;;845.60;281.60;;;;;;5130995;27;20063;-59
2022/03/03 10:36:10;;;;;;;21.83;18.67;;;845.70;281.60;;;;;;5134007;27;20462;-59
2022/03/03 10:38:55;;;;;;;27.83;22.83;;;845.60;307.20;;;;;;5130477;27;20525;-59
2022/03/03 10:41:33;;;;;;;23.38;19.15;;;845.70;307.20;;;;;;5131540;27;20026;-59
2022/03/03 10:44:01;;;;;;;36.65;26.65;;;871.00;281.60;;;;;;5129289;27;21105;-59
2022/03/03 10:46:28;;;;;;;76.90;47.30;;;871.10;281.60;;;;;;5134125;27;20034;-60
2022/03/03 10:48:54;;;;;;;21.38;19.05;;;896.50;256.00;;;;;;5130697;27;20027;-59
2022/03/03 10:51:24;;;;;;;56.97;40.05;;;896.00;256.00;;;;;;5128666;27;20430;-59
2022/03/03 10:53:56;;;;;;;21.05;18.15;;;871.00;281.60;;;;;;5132561;27;20015;-59
2022/03/03 10:56:23;;;;;;;37.15;30.92;;;871.20;256.00;;;;;;5127935;27;20034;-59
2022/03/03 10:58:54;;;;;;;52.42;43.63;;;896.30;256.00;;;;;;5132477;27;20417;-59
2022/03/03 11:01:25;;;;;;;21.95;19.55;;;896.10;256.00;;;;;;5133830;27;20027;-59
2022/03/03 11:03:53;;;;;;;22.40;20.00;;;871.00;256.00;;;;;;5132994;27;20023;-59
2022/03/03 11:06:21;;;;;;;33.10;26.85;;;871.00;281.60;;;;;;5134178;27;20036;-59
2022/03/03 11:08:49;;;;;;;26.67;23.73;;;871.00;281.60;;;;;;5133873;27;20053;-59
2022/03/03 11:11:15;;;;;;;22.85;20.35;;;871.00;281.60;;;;;;5134560;27;20073;-59
2022/03/03 11:13:43;;;;;;;21.48;19.17;;;870.70;281.60;;;;;;5134659;27;20023;-59
2022/03/03 11:16:09;;;;;;;19.23;17.15;;;871.00;281.60;;;;;;5132828;27;20069;-59
2022/03/03 11:18:35;;;;;;;32.88;25.85;;;870.50;307.20;;;;;;5132637;27;20117;-59
2022/03/03 11:21:01;;;;;;;54.47;41.60;;;870.60;307.20;;;;;;5133525;27;20164;-59
2022/03/03 11:23:45;;;;;;;22.65;20.15;;;845.20;307.20;;;;;;5132922;27;20372;-59
2022/03/03 11:26:23;;;;;;;42.70;32.00;;;819.90;307.20;;;;;;5130682;27;20661;-59
2022/03/03 11:28:58;;;;;;;35.13;28.40;;;820.00;307.20;;;;;;5129673;27;20023;-59
2022/03/03 11:31:33;;;;;;;23.33;19.63;;;845.00;332.80;;;;;;5132604;27;20062;-59
2022/03/03 11:34:30;;;;;;;38.25;29.50;;;819.20;332.80;;;;;;5131801;27;20015;-59
2022/03/03 11:37:06;;;;;;;73.68;49.28;;;819.70;332.80;;;;;;5130361;27;20041;-59
2022/03/03 11:39:57;;;;;;;23.38;19.90;;;794.10;358.40;;;;;;5130956;27;20031;-59
2022/03/03 11:42:35;;;;;;;30.08;25.20;;;793.90;358.40;;;;;;5131166;27;20500;-59
2022/03/03 11:45:13;;;;;;;34.80;27.08;;;794.50;332.80;;;;;;5131532;27;20040;-59
2022/03/03 11:47:42;;;;;;;33.53;24.40;;;819.70;332.80;;;;;;5131455;27;20027;-59
2022/03/03 11:50:25;;;;;;;27.25;20.92;;;819.40;332.80;;;;;;5132838;27;20035;-59
2022/03/03 11:53:15;;;;;;;44.75;29.33;;;794.40;332.80;;;;;;5128980;27;20027;-59
2022/03/03 11:55:45;;;;;;;28.45;21.63;;;819.60;307.20;;;;;;5128618;27;20027;-59
2022/03/03 11:58:27;;;;;;;27.10;21.30;;;819.40;307.20;;;;;;5127722;27;20031;-59
2022/03/03 12:01:03;;;;;;;31.77;23.67;;;793.90;332.80;;;;;;5127042;27;20043;-59
2022/03/03 12:03:29;;;;;;;42.50;29.75;;;768.70;332.80;;;;;;5129606;27;20027;-59
2022/03/03 12:06:14;;;;;;;21.52;17.40;;;793.60;358.40;;;;;;5129715;27;20440;-59
2022/03/03 12:08:41;;;;;;;24.67;20.80;;;793.60;332.80;;;;;;5129029;27;20034;-59
2022/03/03 12:11:13;;;;;;;21.63;18.55;;;793.90;332.80;;;;;;5130039;27;20096;-59
2022/03/03 12:13:39;;;;;;;20.88;17.73;;;768.90;307.20;;;;;;5129650;27;20028;-59
2022/03/03 12:16:28;;;;;;;20.30;16.95;;;793.70;332.80;;;;;;5130318;27;20538;-59
2022/03/03 12:18:58;;;;;;;26.13;21.23;;;793.90;307.20;;;;;;5128237;27;20060;-59